Terminal Aerodrome Forecast
Issued by NWS Caribou, ME

Home | Current Version | Previous Version | Text Only | Print | Product List | Glossary On
Versions: 1 2 3 4 5 6 7 8 9 10 11 12 13 14 15 16 17 18 19 20 21 22 23 24 25
000
FTUS41 KCAR 190520
TAFBGR
TAF
KBGR 190520Z 1906/2006 00000KT P6SM SKC
     FM191300 20009KT P6SM BKN150
     FM192000 20009KT P6SM SCT050
     FM192200 20009KT P6SM BKN040=

USA.gov is the U.S. government's official web portal to all federal, state and local government web resources and services.